Time;durP1;ratioP1;P1;durP2;ratioP2;P2;SDS_P1;SDS_P2;PMS_P1;PMS_P2;Temp;Humidity;BMP_temperature;BMP_pressure;BME280_temperature;BME280_humidity;BME280_pressure;Samples;Min_cycle;Max_cycle;Signal;HPM_P1;HPM_P2
2023/06/06 00:01:09;;;;;;;5.67;4.20;;;;;;;;;;5118361;28;20204;-64
2023/06/06 00:03:38;;;;;;;5.67;4.23;;;;;;;;;;5118194;28;20212;-63
2023/06/06 00:06:08;;;;;;;5.80;4.63;;;;;;;;;;5118252;28;20228;-63
2023/06/06 00:08:36;;;;;;;7.23;4.43;;;;;;;;;;5118096;28;20209;-65
2023/06/06 00:11:04;;;;;;;4.77;3.93;;;;;;;;;;5118307;28;20220;-65
2023/06/06 00:13:34;;;;;;;5.57;3.97;;;;;;;;;;5117948;28;20209;-64
2023/06/06 00:16:04;;;;;;;3.87;3.57;;;;;;;;;;5117982;28;20688;-64
2023/06/06 00:18:34;;;;;;;4.97;4.20;;;;;;;;;;5118171;28;20204;-65
2023/06/06 00:21:02;;;;;;;4.43;3.83;;;;;;;;;;5118107;28;20202;-63
2023/06/06 00:23:30;;;;;;;4.03;3.63;;;;;;;;;;5117718;28;20688;-65
2023/06/06 00:25:58;;;;;;;6.03;4.20;;;;;;;;;;5117923;28;20223;-65
2023/06/06 00:28:27;;;;;;;5.00;3.57;;;;;;;;;;5117810;28;20208;-65
2023/06/06 00:30:55;;;;;;;6.17;4.30;;;;;;;;;;5119761;28;20295;-64
2023/06/06 00:33:23;;;;;;;9.50;4.77;;;;;;;;;;5121734;28;20217;-64
2023/06/06 00:35:52;;;;;;;6.23;5.00;;;;;;;;;;5121593;28;20652;-65
2023/06/06 00:38:21;;;;;;;10.07;5.57;;;;;;;;;;5113020;28;20272;-65
2023/06/06 00:40:49;;;;;;;13.80;5.53;;;;;;;;;;5120178;28;20238;-65
2023/06/06 00:43:17;;;;;;;9.03;5.40;;;;;;;;;;5121325;28;20211;-65
2023/06/06 00:45:45;;;;;;;6.93;5.57;;;;;;;;;;5121474;28;20237;-66
2023/06/06 00:48:13;;;;;;;7.47;5.20;;;;;;;;;;5121487;28;20577;-65
2023/06/06 00:50:42;;;;;;;7.20;5.50;;;;;;;;;;5121666;28;20203;-65
2023/06/06 00:53:12;;;;;;;8.17;5.47;;;;;;;;;;5121194;28;20244;-63
2023/06/06 00:55:41;;;;;;;10.57;4.23;;;;;;;;;;5121307;28;20221;-64
2023/06/06 00:58:10;;;;;;;6.53;5.07;;;;;;;;;;5121015;28;20351;-64
2023/06/06 01:00:40;;;;;;;12.77;5.37;;;;;;;;;;5121267;28;20213;-63
2023/06/06 01:03:10;;;;;;;7.20;4.87;;;;;;;;;;5121181;28;20676;-65
2023/06/06 01:05:38;;;;;;;8.03;4.10;;;;;;;;;;5121398;28;20225;-63
2023/06/06 01:08:07;;;;;;;4.73;4.17;;;;;;;;;;5120895;28;20212;-64
2023/06/06 01:10:36;;;;;;;10.37;4.87;;;;;;;;;;5121490;28;20295;-64
2023/06/06 01:13:11;;;;;;;7.03;4.70;;;;;;;;;;5120958;27;20222;-63
2023/06/06 01:15:43;;;;;;;7.33;4.67;;;;;;;;;;5120938;28;20228;-64
2023/06/06 01:18:12;;;;;;;5.60;4.33;;;;;;;;;;5120889;28;20578;-64
2023/06/06 01:20:41;;;;;;;7.00;4.93;;;;;;;;;;5121030;28;20207;-65
2023/06/06 01:23:11;;;;;;;8.27;4.50;;;;;;;;;;5120629;28;20683;-64
2023/06/06 01:25:41;;;;;;;6.03;4.33;;;;;;;;;;5120550;28;20261;-65
2023/06/06 01:28:12;;;;;;;5.37;4.43;;;;;;;;;;5120998;28;20285;-65
2023/06/06 01:30:42;;;;;;;10.50;4.83;;;;;;;;;;5120993;28;20208;-64
2023/06/06 01:33:15;;;;;;;4.87;4.37;;;;;;;;;;5120843;28;20203;-64
2023/06/06 01:35:51;;;;;;;12.17;5.00;;;;;;;;;;5120493;28;20253;-64
2023/06/06 01:38:21;;;;;;;5.23;4.73;;;;;;;;;;5120715;28;20213;-65
2023/06/06 01:40:52;;;;;;;4.80;4.30;;;;;;;;;;5120532;27;20203;-65
2023/06/06 01:43:22;;;;;;;5.70;4.13;;;;;;;;;;5120515;28;20215;-64
2023/06/06 01:45:50;;;;;;;7.23;4.53;;;;;;;;;;5120228;27;20754;-64
2023/06/06 01:48:19;;;;;;;6.23;4.33;;;;;;;;;;5120317;28;20233;-64
2023/06/06 01:50:47;;;;;;;11.27;4.60;;;;;;;;;;5120266;28;20731;-64
2023/06/06 01:53:16;;;;;;;7.47;4.70;;;;;;;;;;5120006;28;20241;-64
2023/06/06 01:55:45;;;;;;;4.67;4.23;;;;;;;;;;5120008;28;20217;-65
2023/06/06 01:58:14;;;;;;;6.17;4.10;;;;;;;;;;5119932;28;20203;-65
2023/06/06 02:00:43;;;;;;;4.90;4.37;;;;;;;;;;5120318;28;20207;-64
2023/06/06 02:03:11;;;;;;;5.37;4.00;;;;;;;;;;5120415;28;20205;-65
2023/06/06 02:05:40;;;;;;;10.00;4.67;;;;;;;;;;5119811;28;20229;-65
2023/06/06 02:08:08;;;;;;;7.53;4.20;;;;;;;;;;5119605;28;20666;-63
2023/06/06 02:10:37;;;;;;;5.03;3.97;;;;;;;;;;5119349;28;20199;-63
2023/06/06 02:13:07;;;;;;;5.10;4.50;;;;;;;;;;5125591;27;20206;-64
2023/06/06 02:15:35;;;;;;;12.67;4.53;;;;;;;;;;5130701;27;20214;-63
2023/06/06 02:18:03;;;;;;;7.37;4.10;;;;;;;;;;5128649;27;20202;-64
2023/06/06 02:20:31;;;;;;;6.30;4.20;;;;;;;;;;5129513;27;20203;-65
2023/06/06 02:23:00;;;;;;;7.00;4.30;;;;;;;;;;5130672;27;20197;-65
2023/06/06 02:25:28;;;;;;;5.57;4.40;;;;;;;;;;5129265;27;20226;-65
2023/06/06 02:27:57;;;;;;;7.37;4.27;;;;;;;;;;5129984;27;20230;-64
2023/06/06 02:30:27;;;;;;;8.47;4.63;;;;;;;;;;5126103;27;20212;-64
2023/06/06 02:32:56;;;;;;;5.73;4.50;;;;;;;;;;5129172;27;20202;-65
2023/06/06 02:35:24;;;;;;;5.03;4.23;;;;;;;;;;5125878;27;20623;-65
2023/06/06 02:37:52;;;;;;;5.27;4.27;;;;;;;;;;5129114;27;20653;-65
2023/06/06 02:40:21;;;;;;;8.20;4.97;;;;;;;;;;5124174;27;20203;-64
2023/06/06 02:42:49;;;;;;;6.27;4.60;;;;;;;;;;5129279;27;20198;-63
2023/06/06 02:45:18;;;;;;;5.97;4.07;;;;;;;;;;5130015;27;20576;-63
2023/06/06 02:47:49;;;;;;;6.07;4.80;;;;;;;;;;5126018;27;20205;-63
2023/06/06 02:50:19;;;;;;;7.07;4.60;;;;;;;;;;5128160;27;20199;-64
2023/06/06 02:52:47;;;;;;;6.73;4.43;;;;;;;;;;5125379;27;20330;-63
2023/06/06 02:55:15;;;;;;;9.03;4.70;;;;;;;;;;5128046;27;20224;-63
2023/06/06 02:57:44;;;;;;;5.03;4.40;;;;;;;;;;5129727;27;20202;-63
2023/06/06 03:00:13;;;;;;;7.67;4.63;;;;;;;;;;5128925;27;20298;-65
2023/06/06 03:02:41;;;;;;;7.73;6.80;;;;;;;;;;5128006;27;20203;-64
2023/06/06 03:05:13;;;;;;;9.60;5.33;;;;;;;;;;5128927;27;20631;-64
2023/06/06 03:07:41;;;;;;;10.40;4.80;;;;;;;;;;5127702;27;20573;-64
2023/06/06 03:10:12;;;;;;;7.60;5.40;;;;;;;;;;5128582;27;20303;-63
2023/06/06 03:12:40;;;;;;;8.23;4.70;;;;;;;;;;5129323;27;20193;-63
2023/06/06 03:15:12;;;;;;;6.67;5.27;;;;;;;;;;5128439;27;21197;-63
2023/06/06 03:17:40;;;;;;;10.17;5.17;;;;;;;;;;5122965;27;20205;-65
2023/06/06 03:20:10;;;;;;;8.50;5.30;;;;;;;;;;5130913;27;20202;-63
2023/06/06 03:22:39;;;;;;;8.53;5.07;;;;;;;;;;5109250;28;20214;-63
2023/06/06 03:25:08;;;;;;;5.50;4.60;;;;;;;;;;5118028;28;20577;-65
2023/06/06 03:27:36;;;;;;;5.60;5.00;;;;;;;;;;5117964;28;20308;-64
2023/06/06 03:30:06;;;;;;;8.63;4.63;;;;;;;;;;5118597;28;20292;-63
2023/06/06 03:32:34;;;;;;;6.10;4.93;;;;;;;;;;5118399;28;20210;-63
2023/06/06 03:35:03;;;;;;;8.80;5.00;;;;;;;;;;5118431;28;20209;-64
2023/06/06 03:37:31;;;;;;;10.03;5.20;;;;;;;;;;5118194;28;20202;-64
2023/06/06 03:40:01;;;;;;;8.47;5.37;;;;;;;;;;5118350;28;20205;-64
2023/06/06 03:42:29;;;;;;;6.80;4.93;;;;;;;;;;5118431;28;20209;-64
2023/06/06 03:44:57;;;;;;;5.57;5.00;;;;;;;;;;5118359;28;20289;-64
2023/06/06 03:47:25;;;;;;;7.97;4.87;;;;;;;;;;5118067;28;20235;-65
2023/06/06 03:49:53;;;;;;;10.10;5.47;;;;;;;;;;5118186;28;20241;-64
2023/06/06 03:52:21;;;;;;;7.57;5.50;;;;;;;;;;5118071;28;20288;-63
2023/06/06 03:54:50;;;;;;;6.90;4.80;;;;;;;;;;5118205;28;20287;-62
2023/06/06 03:57:19;;;;;;;6.23;4.93;;;;;;;;;;5118199;28;20208;-63
2023/06/06 03:59:49;;;;;;;10.83;5.30;;;;;;;;;;5118130;28;20210;-62
2023/06/06 04:02:18;;;;;;;13.37;5.60;;;;;;;;;;5118063;28;20755;-63
2023/06/06 04:04:50;;;;;;;9.73;5.93;;;;;;;;;;5118116;28;20250;-63
2023/06/06 04:07:18;;;;;;;7.43;5.00;;;;;;;;;;5122419;28;20228;-63
2023/06/06 04:09:47;;;;;;;7.90;5.43;;;;;;;;;;5122350;28;20209;-63
2023/06/06 04:12:15;;;;;;;6.63;4.70;;;;;;;;;;5122185;28;20566;-64
2023/06/06 04:14:44;;;;;;;7.53;5.00;;;;;;;;;;5122175;28;20216;-64
2023/06/06 04:17:12;;;;;;;7.13;5.23;;;;;;;;;;5109260;28;20238;-64
2023/06/06 04:19:41;;;;;;;10.00;6.17;;;;;;;;;;5122236;28;20209;-63
2023/06/06 04:22:09;;;;;;;6.47;5.77;;;;;;;;;;5122250;28;20205;-63
2023/06/06 04:24:37;;;;;;;7.47;5.73;;;;;;;;;;5122047;28;20292;-64
2023/06/06 04:27:06;;;;;;;10.80;5.70;;;;;;;;;;5121631;28;20312;-63
2023/06/06 04:29:34;;;;;;;10.83;5.80;;;;;;;;;;5121574;28;20217;-62
2023/06/06 04:32:04;;;;;;;8.07;5.17;;;;;;;;;;5121822;28;20691;-64
2023/06/06 04:34:35;;;;;;;8.07;5.60;;;;;;;;;;5121721;28;20730;-64
2023/06/06 04:37:04;;;;;;;9.53;6.47;;;;;;;;;;5121681;28;20582;-64
2023/06/06 04:39:32;;;;;;;10.67;6.00;;;;;;;;;;5129590;27;20239;-63
2023/06/06 04:42:02;;;;;;;7.97;6.17;;;;;;;;;;5111047;28;20649;-63
2023/06/06 04:44:30;;;;;;;9.97;5.57;;;;;;;;;;5121567;27;20236;-62
2023/06/06 04:47:00;;;;;;;7.97;5.70;;;;;;;;;;5121612;28;20234;-64
2023/06/06 04:49:35;;;;;;;7.20;5.43;;;;;;;;;;5121744;28;20206;-64
2023/06/06 04:52:05;;;;;;;8.93;6.43;;;;;;;;;;5121884;28;20211;-63
2023/06/06 04:54:34;;;;;;;8.03;5.43;;;;;;;;;;5121643;28;20207;-64
2023/06/06 04:57:02;;;;;;;8.47;5.73;;;;;;;;;;5121464;28;20239;-65
2023/06/06 04:59:32;;;;;;;9.13;6.03;;;;;;;;;;5121337;28;20218;-65
2023/06/06 05:02:01;;;;;;;8.37;5.80;;;;;;;;;;5121256;28;20669;-65
2023/06/06 05:04:31;;;;;;;6.23;5.03;;;;;;;;;;5121417;28;20202;-66
2023/06/06 05:07:00;;;;;;;10.27;5.67;;;;;;;;;;5121168;28;20225;-65
2023/06/06 05:09:28;;;;;;;7.27;5.47;;;;;;;;;;5120915;28;20209;-64
2023/06/06 05:11:56;;;;;;;7.70;5.50;;;;;;;;;;5121103;28;20690;-63
2023/06/06 05:14:24;;;;;;;6.73;5.30;;;;;;;;;;5120884;28;20209;-63
2023/06/06 05:16:53;;;;;;;11.30;5.67;;;;;;;;;;5120606;28;20218;-65
2023/06/06 05:19:22;;;;;;;6.90;5.40;;;;;;;;;;5121031;28;20223;-65
2023/06/06 05:21:52;;;;;;;7.63;4.93;;;;;;;;;;5120988;28;20233;-65
2023/06/06 05:24:20;;;;;;;9.60;5.53;;;;;;;;;;5120962;28;20208;-65
2023/06/06 05:26:48;;;;;;;8.90;5.57;;;;;;;;;;5121067;28;20231;-65
2023/06/06 05:29:16;;;;;;;7.47;5.43;;;;;;;;;;5120489;28;20209;-65
2023/06/06 05:31:44;;;;;;;7.70;5.70;;;;;;;;;;5120530;28;20206;-65
2023/06/06 05:34:13;;;;;;;9.30;6.30;;;;;;;;;;5120889;28;20206;-64
2023/06/06 05:36:42;;;;;;;7.77;5.67;;;;;;;;;;5120398;28;20221;-63
2023/06/06 05:39:12;;;;;;;9.47;5.60;;;;;;;;;;5120247;28;20211;-65
2023/06/06 05:41:41;;;;;;;7.93;6.00;;;;;;;;;;5120563;28;20215;-64
2023/06/06 05:44:09;;;;;;;7.97;5.70;;;;;;;;;;5120085;28;20210;-65
2023/06/06 05:46:37;;;;;;;7.50;5.57;;;;;;;;;;5120503;27;20697;-63
2023/06/06 05:49:05;;;;;;;6.97;5.63;;;;;;;;;;5120238;28;20730;-64
2023/06/06 05:51:34;;;;;;;7.17;5.27;;;;;;;;;;5119998;28;20230;-65
2023/06/06 05:54:02;;;;;;;9.77;5.50;;;;;;;;;;5133721;27;20239;-64
2023/06/06 05:56:45;;;;;;;7.03;5.30;;;;;;;;;;5115998;28;20232;-65
2023/06/06 05:59:14;;;;;;;9.83;6.10;;;;;;;;;;5121167;27;20214;-63
2023/06/06 06:01:44;;;;;;;8.40;5.87;;;;;;;;;;5110102;28;20213;-63
2023/06/06 06:04:12;;;;;;;6.83;6.00;;;;;;;;;;5138359;27;20207;-65
2023/06/06 06:06:41;;;;;;;9.30;5.97;;;;;;;;;;5140323;27;20222;-63
2023/06/06 06:09:10;;;;;;;8.47;5.93;;;;;;;;;;5118104;28;20269;-65
2023/06/06 06:11:38;;;;;;;8.23;6.30;;;;;;;;;;5124061;27;20576;-64
2023/06/06 06:14:08;;;;;;;8.90;5.77;;;;;;;;;;5111092;28;20214;-65
2023/06/06 06:16:36;;;;;;;7.30;6.20;;;;;;;;;;5119292;28;20552;-65
2023/06/06 06:19:05;;;;;;;7.50;6.30;;;;;;;;;;5119687;28;20716;-64
2023/06/06 06:21:35;;;;;;;9.53;6.00;;;;;;;;;;5119714;28;20203;-65
2023/06/06 06:24:04;;;;;;;11.87;6.10;;;;;;;;;;5119700;27;20237;-65
2023/06/06 06:26:33;;;;;;;9.43;5.67;;;;;;;;;;5126010;27;20703;-65
2023/06/06 06:29:01;;;;;;;7.50;5.60;;;;;;;;;;5114701;28;20244;-65
2023/06/06 06:31:31;;;;;;;9.80;5.90;;;;;;;;;;5119337;28;20249;-65
2023/06/06 06:33:59;;;;;;;7.67;6.13;;;;;;;;;;5119711;28;20259;-64
2023/06/06 06:36:28;;;;;;;8.13;5.70;;;;;;;;;;5119198;28;20231;-64
2023/06/06 06:38:56;;;;;;;7.80;5.77;;;;;;;;;;5118638;28;20200;-65
2023/06/06 06:41:25;;;;;;;12.93;6.40;;;;;;;;;;5119177;28;20210;-64
2023/06/06 06:43:53;;;;;;;12.47;5.97;;;;;;;;;;5107865;28;20229;-67
2023/06/06 06:46:21;;;;;;;8.43;5.27;;;;;;;;;;5119104;28;20646;-69
2023/06/06 06:48:51;;;;;;;8.30;6.40;;;;;;;;;;5119246;28;20274;-69
2023/06/06 06:51:21;;;;;;;9.53;5.93;;;;;;;;;;5118839;28;20207;-70
2023/06/06 06:53:51;;;;;;;10.57;6.23;;;;;;;;;;5118697;28;20245;-70
2023/06/06 06:56:20;;;;;;;6.80;6.17;;;;;;;;;;5119183;28;20235;-70
2023/06/06 06:58:48;;;;;;;9.40;6.13;;;;;;;;;;5119051;28;20205;-70
2023/06/06 07:01:19;;;;;;;7.57;5.83;;;;;;;;;;5111417;27;20637;-70
2023/06/06 07:03:48;;;;;;;8.23;5.83;;;;;;;;;;5110458;27;20205;-70
2023/06/06 07:06:18;;;;;;;6.83;5.77;;;;;;;;;;5137515;27;20251;-70
2023/06/06 07:08:47;;;;;;;7.70;5.43;;;;;;;;;;5118253;28;20684;-70
2023/06/06 07:11:15;;;;;;;8.27;5.50;;;;;;;;;;5118592;28;20204;-70
2023/06/06 07:13:43;;;;;;;8.07;5.67;;;;;;;;;;5118547;28;20288;-70
2023/06/06 07:16:12;;;;;;;11.03;6.50;;;;;;;;;;5118541;28;20259;-70
2023/06/06 07:18:40;;;;;;;8.87;5.30;;;;;;;;;;5115370;28;20208;-70
2023/06/06 07:21:08;;;;;;;9.37;5.60;;;;;;;;;;5112734;27;20294;-70
2023/06/06 07:23:39;;;;;;;9.20;6.10;;;;;;;;;;5105146;28;20236;-69
2023/06/06 07:26:08;;;;;;;12.60;6.10;;;;;;;;;;5118504;28;20217;-69
2023/06/06 07:28:36;;;;;;;11.50;5.87;;;;;;;;;;5118301;28;20236;-70
2023/06/06 07:31:04;;;;;;;11.77;6.13;;;;;;;;;;5118209;28;20247;-70
2023/06/06 07:33:33;;;;;;;6.60;5.67;;;;;;;;;;5118656;28;20204;-70
2023/06/06 07:36:01;;;;;;;8.37;5.60;;;;;;;;;;5118223;28;20315;-69
2023/06/06 07:38:29;;;;;;;8.77;5.87;;;;;;;;;;5118448;28;20260;-70
2023/06/06 07:40:59;;;;;;;10.80;5.83;;;;;;;;;;5117891;28;21266;-70
2023/06/06 07:43:27;;;;;;;9.10;6.50;;;;;;;;;;5118032;28;20208;-70
2023/06/06 07:45:55;;;;;;;8.63;6.07;;;;;;;;;;5118327;28;20232;-70
2023/06/06 07:48:23;;;;;;;8.83;6.00;;;;;;;;;;5118148;28;20225;-70
2023/06/06 07:50:51;;;;;;;8.73;5.40;;;;;;;;;;5117653;28;20213;-70
2023/06/06 07:53:20;;;;;;;8.90;5.90;;;;;;;;;;5118038;28;20231;-70
2023/06/06 07:55:49;;;;;;;7.33;5.43;;;;;;;;;;5118373;28;20253;-70
2023/06/06 07:58:25;;;;;;;9.03;5.50;;;;;;;;;;5138418;27;20234;-70
2023/06/06 08:00:58;;;;;;;10.10;5.67;;;;;;;;;;5131328;27;20210;-71
2023/06/06 08:03:26;;;;;;;9.50;5.33;;;;;;;;;;5105086;28;20240;-69
2023/06/06 08:05:54;;;;;;;8.00;5.20;;;;;;;;;;5118163;28;20229;-70
2023/06/06 08:08:23;;;;;;;8.27;6.00;;;;;;;;;;5110336;28;20266;-71
2023/06/06 08:10:51;;;;;;;6.87;5.53;;;;;;;;;;5118215;28;20205;-71
2023/06/06 08:13:21;;;;;;;8.63;6.00;;;;;;;;;;5117946;28;20205;-70
2023/06/06 08:15:49;;;;;;;8.27;6.00;;;;;;;;;;5118136;28;20314;-70
2023/06/06 08:18:17;;;;;;;6.23;5.63;;;;;;;;;;5117978;28;20205;-71
2023/06/06 08:20:46;;;;;;;10.80;6.50;;;;;;;;;;5117835;28;20212;-69
2023/06/06 08:23:14;;;;;;;8.77;5.27;;;;;;;;;;5117844;28;20578;-71
2023/06/06 08:25:42;;;;;;;8.67;5.70;;;;;;;;;;5117561;28;20227;-70
2023/06/06 08:28:10;;;;;;;11.67;6.00;;;;;;;;;;5117564;28;20305;-71
2023/06/06 08:30:40;;;;;;;7.93;5.20;;;;;;;;;;5117833;28;20209;-69
2023/06/06 08:33:08;;;;;;;6.77;5.30;;;;;;;;;;5117976;28;20209;-70
2023/06/06 08:35:36;;;;;;;6.77;5.47;;;;;;;;;;5117987;28;20231;-69
2023/06/06 08:38:05;;;;;;;7.67;5.47;;;;;;;;;;5117591;28;20239;-70
2023/06/06 08:40:33;;;;;;;12.57;5.60;;;;;;;;;;5117836;28;20268;-70
2023/06/06 08:43:02;;;;;;;8.73;6.00;;;;;;;;;;5117637;28;20211;-71
2023/06/06 08:45:30;;;;;;;10.77;5.20;;;;;;;;;;5117524;28;20284;-71
2023/06/06 08:48:02;;;;;;;8.93;5.57;;;;;;;;;;5117493;28;20595;-70
2023/06/06 08:50:30;;;;;;;8.13;5.13;;;;;;;;;;5117509;28;20279;-70
2023/06/06 08:53:04;;;;;;;9.30;5.70;;;;;;;;;;5120762;28;20254;-70
2023/06/06 08:55:34;;;;;;;6.83;4.80;;;;;;;;;;5121560;28;20232;-69
2023/06/06 08:58:03;;;;;;;7.30;5.43;;;;;;;;;;5120917;28;20616;-70
2023/06/06 09:00:31;;;;;;;7.57;5.77;;;;;;;;;;5121320;28;20208;-69
2023/06/06 09:03:02;;;;;;;7.13;5.23;;;;;;;;;;5121110;28;20202;-71
2023/06/06 09:05:31;;;;;;;10.77;5.50;;;;;;;;;;5121115;28;20270;-70
2023/06/06 09:08:01;;;;;;;8.13;5.70;;;;;;;;;;5121190;28;20293;-71
2023/06/06 09:10:29;;;;;;;9.67;5.37;;;;;;;;;;5120987;28;20310;-71
2023/06/06 09:12:58;;;;;;;6.73;4.70;;;;;;;;;;5121050;28;20213;-70
2023/06/06 09:15:27;;;;;;;8.23;5.57;;;;;;;;;;5120911;28;20226;-70
2023/06/06 09:17:55;;;;;;;11.70;7.37;;;;;;;;;;5120886;28;20216;-71
2023/06/06 09:20:25;;;;;;;8.63;5.23;;;;;;;;;;5121138;28;20199;-70
2023/06/06 09:22:57;;;;;;;8.13;5.03;;;;;;;;;;5120857;28;20235;-71
2023/06/06 09:25:26;;;;;;;7.77;4.50;;;;;;;;;;5120632;28;20229;-70
2023/06/06 09:27:58;;;;;;;7.87;5.03;;;;;;;;;;5109140;28;20659;-70
2023/06/06 09:30:28;;;;;;;7.10;5.33;;;;;;;;;;5120622;28;20232;-70
2023/06/06 09:32:58;;;;;;;10.87;6.00;;;;;;;;;;5120966;28;20275;-71
2023/06/06 09:35:31;;;;;;;7.60;5.27;;;;;;;;;;5120760;28;20253;-71
2023/06/06 09:38:05;;;;;;;6.77;5.40;;;;;;;;;;5120493;28;20213;-71
2023/06/06 09:40:33;;;;;;;8.03;5.13;;;;;;;;;;5120484;28;20206;-70
2023/06/06 09:43:07;;;;;;;10.07;6.53;;;;;;;;;;5120428;28;20209;-70
2023/06/06 09:45:35;;;;;;;6.70;4.80;;;;;;;;;;5120405;28;20744;-70
2023/06/06 09:48:04;;;;;;;8.13;4.93;;;;;;;;;;5120307;28;20214;-70
2023/06/06 09:50:34;;;;;;;5.83;4.73;;;;;;;;;;5120532;28;20239;-71
2023/06/06 09:53:02;;;;;;;5.90;4.37;;;;;;;;;;5120141;28;20267;-69
2023/06/06 09:55:30;;;;;;;5.70;4.70;;;;;;;;;;5120112;28;20714;-71
2023/06/06 09:57:59;;;;;;;8.40;5.40;;;;;;;;;;5119938;28;20210;-71
2023/06/06 10:00:27;;;;;;;9.67;5.90;;;;;;;;;;5120154;28;20291;-71
2023/06/06 10:02:57;;;;;;;6.43;5.00;;;;;;;;;;5120181;28;20293;-70
2023/06/06 10:05:26;;;;;;;7.20;5.37;;;;;;;;;;5119997;28;20305;-70
2023/06/06 10:07:56;;;;;;;9.43;4.80;;;;;;;;;;5120047;28;20235;-70
2023/06/06 10:10:25;;;;;;;7.20;5.17;;;;;;;;;;5109088;28;20228;-71
2023/06/06 10:12:55;;;;;;;9.13;5.30;;;;;;;;;;5119616;28;20258;-70
2023/06/06 10:15:23;;;;;;;6.77;5.47;;;;;;;;;;5120069;28;20262;-71
2023/06/06 10:17:52;;;;;;;7.80;4.93;;;;;;;;;;5119719;27;20614;-71
2023/06/06 10:20:23;;;;;;;5.67;4.93;;;;;;;;;;5119988;28;20236;-71
2023/06/06 10:22:51;;;;;;;7.43;5.00;;;;;;;;;;5119587;28;20239;-69
2023/06/06 10:25:21;;;;;;;12.77;4.80;;;;;;;;;;5119470;28;20242;-70
2023/06/06 10:27:53;;;;;;;8.17;4.80;;;;;;;;;;5119159;28;20201;-70
2023/06/06 10:30:34;;;;;;;8.50;5.30;;;;;;;;;;5119770;28;20223;-70
2023/06/06 10:33:13;;;;;;;5.83;5.30;;;;;;;;;;5119456;28;20205;-70
2023/06/06 10:35:44;;;;;;;10.07;5.30;;;;;;;;;;5119619;28;20228;-70
2023/06/06 10:38:16;;;;;;;7.10;4.93;;;;;;;;;;5119595;28;20212;-69
2023/06/06 10:40:50;;;;;;;11.70;4.57;;;;;;;;;;5119536;28;20238;-70
2023/06/06 10:43:41;;;;;;;7.07;4.80;;;;;;;;;;5119003;28;20653;-69
2023/06/06 10:46:10;;;;;;;6.97;4.57;;;;;;;;;;5118991;28;20272;-71
2023/06/06 10:48:38;;;;;;;6.83;4.97;;;;;;;;;;5119387;27;20205;-71
2023/06/06 10:51:09;;;;;;;7.07;5.27;;;;;;;;;;5119048;28;20728;-71
2023/06/06 10:53:42;;;;;;;6.80;4.23;;;;;;;;;;5118700;28;20243;-71
2023/06/06 10:56:31;;;;;;;5.10;4.10;;;;;;;;;;5119218;28;20226;-70
2023/06/06 10:58:59;;;;;;;8.00;4.10;;;;;;;;;;5118867;28;20218;-70
2023/06/06 11:01:35;;;;;;;9.27;4.90;;;;;;;;;;5118928;28;20198;-69
2023/06/06 11:04:16;;;;;;;5.17;4.63;;;;;;;;;;5118950;28;20290;-69
2023/06/06 11:06:46;;;;;;;5.67;4.50;;;;;;;;;;5118772;28;20765;-69
2023/06/06 11:09:18;;;;;;;7.60;4.90;;;;;;;;;;5118879;28;20239;-70
2023/06/06 11:11:48;;;;;;;7.30;4.77;;;;;;;;;;5118706;28;20698;-70
2023/06/06 11:14:19;;;;;;;7.50;5.10;;;;;;;;;;5117907;27;20674;-70
2023/06/06 11:17:01;;;;;;;7.80;4.90;;;;;;;;;;5118856;28;20231;-70
2023/06/06 11:19:33;;;;;;;5.23;4.43;;;;;;;;;;5118887;28;20231;-70
2023/06/06 11:22:02;;;;;;;7.37;4.53;;;;;;;;;;5118747;28;20203;-69
2023/06/06 11:24:35;;;;;;;6.00;4.33;;;;;;;;;;5118349;28;20218;-71
2023/06/06 11:27:06;;;;;;;5.47;4.20;;;;;;;;;;5118344;28;20258;-70
2023/06/06 11:29:35;;;;;;;6.57;4.00;;;;;;;;;;5118845;28;20207;-71
2023/06/06 11:32:05;;;;;;;7.10;4.33;;;;;;;;;;5118282;28;20323;-69
2023/06/06 11:34:35;;;;;;;11.37;6.50;;;;;;;;;;5118423;28;20729;-70
2023/06/06 11:37:04;;;;;;;5.23;4.50;;;;;;;;;;5118129;28;20725;-70
2023/06/06 11:39:32;;;;;;;5.53;4.43;;;;;;;;;;5118240;28;20211;-71
2023/06/06 11:42:01;;;;;;;4.77;4.30;;;;;;;;;;5118277;28;20567;-71
2023/06/06 11:44:35;;;;;;;4.80;4.20;;;;;;;;;;5118471;28;20206;-71
2023/06/06 11:47:08;;;;;;;4.43;4.03;;;;;;;;;;5118208;28;20301;-71
2023/06/06 11:49:46;;;;;;;5.10;4.27;;;;;;;;;;5118125;28;20209;-70
2023/06/06 11:52:14;;;;;;;5.47;4.30;;;;;;;;;;5118005;28;20222;-70
2023/06/06 11:54:57;;;;;;;4.03;3.50;;;;;;;;;;5118016;28;20205;-71
2023/06/06 11:57:25;;;;;;;5.23;3.63;;;;;;;;;;5117864;28;20223;-71
2023/06/06 11:59:57;;;;;;;5.00;4.20;;;;;;;;;;5118343;28;20235;-71
2023/06/06 12:02:25;;;;;;;4.63;4.10;;;;;;;;;;5118307;28;20207;-70
2023/06/06 12:04:53;;;;;;;4.03;3.20;;;;;;;;;;5117955;28;20250;-71
2023/06/06 12:07:21;;;;;;;4.17;3.80;;;;;;;;;;5118294;28;20213;-70
2023/06/06 12:09:58;;;;;;;4.20;3.53;;;;;;;;;;5115482;28;20343;-70
2023/06/06 12:12:26;;;;;;;3.83;3.53;;;;;;;;;;5109333;28;20226;-70
2023/06/06 12:14:59;;;;;;;4.80;3.40;;;;;;;;;;5117874;28;20623;-70
2023/06/06 12:17:28;;;;;;;4.90;3.47;;;;;;;;;;5117979;28;20210;-70
2023/06/06 12:19:57;;;;;;;4.20;3.73;;;;;;;;;;5118179;28;20215;-71
2023/06/06 12:22:29;;;;;;;4.63;3.73;;;;;;;;;;5118205;28;20205;-71
2023/06/06 12:24:57;;;;;;;6.57;3.90;;;;;;;;;;5117902;28;20208;-71
2023/06/06 12:27:27;;;;;;;5.77;4.20;;;;;;;;;;5120332;28;20204;-71
2023/06/06 12:29:55;;;;;;;4.23;3.83;;;;;;;;;;5122243;28;20213;-71
2023/06/06 12:32:26;;;;;;;4.30;3.87;;;;;;;;;;5121746;28;20717;-71
2023/06/06 12:34:59;;;;;;;6.17;3.77;;;;;;;;;;5122054;27;20211;-71
2023/06/06 12:37:37;;;;;;;4.10;3.70;;;;;;;;;;5121700;28;20220;-71
2023/06/06 12:40:15;;;;;;;4.80;4.33;;;;;;;;;;5121650;28;20236;-71
2023/06/06 12:42:50;;;;;;;5.40;4.07;;;;;;;;;;5121585;28;20284;-71
2023/06/06 12:45:19;;;;;;;6.83;3.90;;;;;;;;;;5121542;28;20298;-71
2023/06/06 12:47:50;;;;;;;6.50;4.73;;;;;;;;;;5121878;28;20207;-70
2023/06/06 12:50:18;;;;;;;5.27;3.87;;;;;;;;;;5121478;28;20567;-71
2023/06/06 12:52:46;;;;;;;5.63;3.93;;;;;;;;;;5121255;28;20236;-70
2023/06/06 12:55:15;;;;;;;4.23;3.63;;;;;;;;;;5121303;28;20233;-71
2023/06/06 12:57:43;;;;;;;4.73;4.27;;;;;;;;;;5121077;28;20649;-70
2023/06/06 13:00:13;;;;;;;4.17;3.80;;;;;;;;;;5121406;28;20234;-71
2023/06/06 13:02:42;;;;;;;5.57;3.87;;;;;;;;;;5121186;28;20610;-71
2023/06/06 13:05:12;;;;;;;5.40;4.27;;;;;;;;;;5121449;28;20260;-71
2023/06/06 13:07:40;;;;;;;4.50;3.57;;;;;;;;;;5121109;28;20658;-71
2023/06/06 13:10:09;;;;;;;5.10;3.90;;;;;;;;;;5121315;28;20208;-71
2023/06/06 13:12:41;;;;;;;8.83;3.77;;;;;;;;;;5120998;28;20228;-71
2023/06/06 13:15:09;;;;;;;5.73;4.13;;;;;;;;;;5121227;28;20284;-71
2023/06/06 13:17:38;;;;;;;4.57;3.67;;;;;;;;;;5121249;28;20602;-71
2023/06/06 13:20:08;;;;;;;4.30;3.67;;;;;;;;;;5121198;28;20213;-71
2023/06/06 13:22:38;;;;;;;7.33;3.77;;;;;;;;;;5121121;28;20250;-71
2023/06/06 13:25:08;;;;;;;7.27;3.87;;;;;;;;;;5120904;28;20207;-71
2023/06/06 13:27:36;;;;;;;6.57;4.27;;;;;;;;;;5120716;28;20283;-71
2023/06/06 13:30:06;;;;;;;4.40;4.00;;;;;;;;;;5121048;28;20213;-65
2023/06/06 13:32:34;;;;;;;4.93;3.80;;;;;;;;;;5116085;28;20228;-65
2023/06/06 13:35:03;;;;;;;5.03;4.07;;;;;;;;;;5106348;27;20196;-66
2023/06/06 13:37:31;;;;;;;6.43;3.73;;;;;;;;;;5129490;27;20649;-65
2023/06/06 13:40:00;;;;;;;4.60;3.50;;;;;;;;;;5121825;27;20225;-64
2023/06/06 13:42:29;;;;;;;7.03;3.90;;;;;;;;;;5122225;27;20193;-65
2023/06/06 13:44:57;;;;;;;5.03;3.90;;;;;;;;;;5119887;28;20659;-65
2023/06/06 13:47:26;;;;;;;3.70;3.37;;;;;;;;;;5120846;27;20759;-65
2023/06/06 13:49:55;;;;;;;4.97;3.70;;;;;;;;;;5120709;27;20195;-65
2023/06/06 13:52:24;;;;;;;5.80;3.70;;;;;;;;;;5119476;28;20224;-65
2023/06/06 13:54:54;;;;;;;5.03;3.50;;;;;;;;;;5119674;27;20252;-64
2023/06/06 13:57:28;;;;;;;5.87;4.27;;;;;;;;;;5121704;27;20256;-65
2023/06/06 13:59:57;;;;;;;4.83;3.80;;;;;;;;;;5126828;27;20229;-64
2023/06/06 14:02:25;;;;;;;4.77;4.23;;;;;;;;;;5123358;27;20225;-64
2023/06/06 14:04:54;;;;;;;6.27;3.43;;;;;;;;;;5119507;27;20204;-64
2023/06/06 14:07:23;;;;;;;5.17;3.80;;;;;;;;;;5115913;28;20339;-64
2023/06/06 14:09:51;;;;;;;7.03;3.93;;;;;;;;;;5120832;27;20211;-65
2023/06/06 14:12:20;;;;;;;4.27;3.87;;;;;;;;;;5117082;28;20739;-65
2023/06/06 14:14:50;;;;;;;4.67;3.53;;;;;;;;;;5121169;27;20566;-68
2023/06/06 14:17:19;;;;;;;4.03;3.63;;;;;;;;;;5119408;28;20242;-65
2023/06/06 14:19:50;;;;;;;7.07;3.67;;;;;;;;;;5121731;27;20202;-63
2023/06/06 14:22:24;;;;;;;4.37;3.07;;;;;;;;;;5131498;27;20683;-65
2023/06/06 14:24:54;;;;;;;5.17;3.70;;;;;;;;;;5140015;27;20216;-66
2023/06/06 14:27:23;;;;;;;5.37;3.50;;;;;;;;;;5122940;27;20585;-65
2023/06/06 14:29:53;;;;;;;4.43;3.70;;;;;;;;;;5119868;27;20648;-64
2023/06/06 14:32:28;;;;;;;6.57;3.43;;;;;;;;;;5127047;27;20258;-64
2023/06/06 14:34:58;;;;;;;4.37;3.23;;;;;;;;;;5124161;27;20195;-64
2023/06/06 14:37:29;;;;;;;4.10;3.30;;;;;;;;;;5130440;27;20208;-65
2023/06/06 14:39:57;;;;;;;4.90;3.33;;;;;;;;;;5128648;27;20196;-64
2023/06/06 14:42:26;;;;;;;3.88;3.58;;;;;;;;;;5125964;27;20197;-63
2023/06/06 14:44:56;;;;;;;5.90;3.50;;;;;;;;;;5128689;27;20204;-64
2023/06/06 14:47:24;;;;;;;4.37;3.50;;;;;;;;;;5126373;27;20231;-64
2023/06/06 14:49:53;;;;;;;4.23;3.33;;;;;;;;;;5127860;27;20204;-64
2023/06/06 14:52:21;;;;;;;8.82;3.72;;;;;;;;;;5129749;27;20264;-65
2023/06/06 14:54:49;;;;;;;4.15;3.53;;;;;;;;;;5128355;27;20555;-66